sensor_id;sensor_type;location;lat;lon;timestamp;pressure;altitude;pressure_sealevel;temperature;humidity
76050;BME280;64967;50.234;19.224;2023-11-21T00:02:26;74926.22;;;-143.90;100.00
76050;BME280;64967;50.234;19.224;2023-11-21T00:04:54;74942.75;;;-143.90;100.00
76050;BME280;64967;50.234;19.224;2023-11-21T00:07:20;74940.69;;;-143.90;100.00
76050;BME280;64967;50.234;19.224;2023-11-21T00:09:48;74940.69;;;-143.90;100.00
76050;BME280;64967;50.234;19.224;2023-11-21T00:12:14;74940.69;;;-143.90;100.00
76050;BME280;64967;50.234;19.224;2023-11-21T00:14:41;74944.81;;;-143.90;100.00
76050;BME280;64967;50.234;19.224;2023-11-21T00:17:08;74953.09;;;-143.90;100.00
76050;BME280;64967;50.234;19.224;2023-11-21T00:19:35;74961.34;;;-143.90;100.00
76050;BME280;64967;50.234;19.224;2023-11-21T00:22:02;74963.41;;;-143.90;100.00
76050;BME280;64967;50.234;19.224;2023-11-21T00:24:29;74973.75;;;-143.90;100.00
76050;BME280;64967;50.234;19.224;2023-11-21T00:26:55;74973.75;;;-143.90;100.00
76050;BME280;64967;50.234;19.224;2023-11-21T00:29:22;74969.63;;;-143.90;100.00
76050;BME280;64967;50.234;19.224;2023-11-21T00:31:49;74979.97;;;-143.90;100.00
76050;BME280;64967;50.234;19.224;2023-11-21T00:34:15;74982.03;;;-143.90;100.00
76050;BME280;64967;50.234;19.224;2023-11-21T00:36:42;74975.81;;;-143.90;100.00
76050;BME280;64967;50.234;19.224;2023-11-21T00:39:09;74984.09;;;-143.90;100.00
76050;BME280;64967;50.234;19.224;2023-11-21T00:41:35;74982.03;;;-143.90;100.00
76050;BME280;64967;50.234;19.224;2023-11-21T00:44:03;74986.16;;;-143.90;100.00
76050;BME280;64967;50.234;19.224;2023-11-21T00:46:30;74986.16;;;-143.90;100.00
76050;BME280;64967;50.234;19.224;2023-11-21T00:48:57;74984.09;;;-143.90;100.00
76050;BME280;64967;50.234;19.224;2023-11-21T00:51:24;74973.75;;;-143.90;100.00
76050;BME280;64967;50.234;19.224;2023-11-21T00:53:50;74969.63;;;-143.90;100.00
76050;BME280;64967;50.234;19.224;2023-11-21T00:56:18;74965.50;;;-143.90;100.00
76050;BME280;64967;50.234;19.224;2023-11-21T00:58:45;74967.56;;;-143.90;100.00
76050;BME280;64967;50.234;19.224;2023-11-21T01:01:16;74977.88;;;-143.90;100.00
76050;BME280;64967;50.234;19.224;2023-11-21T01:03:43;74961.34;;;-143.90;100.00
76050;BME280;64967;50.234;19.224;2023-11-21T01:06:10;74963.41;;;-143.90;100.00
76050;BME280;64967;50.234;19.224;2023-11-21T01:08:38;74969.63;;;-143.90;100.00
76050;BME280;64967;50.234;19.224;2023-11-21T01:11:05;74969.63;;;-143.90;100.00
76050;BME280;64967;50.234;19.224;2023-11-21T01:13:34;74967.56;;;-143.90;100.00
76050;BME280;64967;50.234;19.224;2023-11-21T01:16:02;74967.56;;;-143.90;100.00
76050;BME280;64967;50.234;19.224;2023-11-21T01:18:30;74961.34;;;-143.90;100.00
76050;BME280;64967;50.234;19.224;2023-11-21T01:20:56;74969.63;;;-143.90;100.00
76050;BME280;64967;50.234;19.224;2023-11-21T01:23:23;74973.75;;;-143.90;100.00
76050;BME280;64967;50.234;19.224;2023-11-21T01:25:50;74965.50;;;-143.90;100.00
76050;BME280;64967;50.234;19.224;2023-11-21T01:28:18;74965.50;;;-143.90;100.00
76050;BME280;64967;50.234;19.224;2023-11-21T01:30:46;74965.50;;;-143.90;100.00
76050;BME280;64967;50.234;19.224;2023-11-21T01:33:12;74969.63;;;-143.90;100.00
76050;BME280;64967;50.234;19.224;2023-11-21T01:35:42;74967.56;;;-143.90;100.00
76050;BME280;64967;50.234;19.224;2023-11-21T01:38:08;74963.41;;;-143.90;100.00
76050;BME280;64967;50.234;19.224;2023-11-21T01:40:35;74977.88;;;-143.90;100.00
76050;BME280;64967;50.234;19.224;2023-11-21T01:43:02;74982.03;;;-143.90;100.00
76050;BME280;64967;50.234;19.224;2023-11-21T01:45:31;74986.16;;;-143.90;100.00
76050;BME280;64967;50.234;19.224;2023-11-21T01:48:01;74977.88;;;-143.90;100.00
76050;BME280;64967;50.234;19.224;2023-11-21T01:50:28;74998.56;;;-143.90;100.00
76050;BME280;64967;50.234;19.224;2023-11-21T01:52:55;74988.22;;;-143.90;100.00
76050;BME280;64967;50.234;19.224;2023-11-21T01:55:23;74986.16;;;-143.90;100.00
76050;BME280;64967;50.234;19.224;2023-11-21T01:57:54;74986.16;;;-143.90;100.00
76050;BME280;64967;50.234;19.224;2023-11-21T02:00:22;74994.44;;;-143.90;100.00
76050;BME280;64967;50.234;19.224;2023-11-21T02:02:50;74998.56;;;-143.90;100.00
76050;BME280;64967;50.234;19.224;2023-11-21T02:05:18;74998.56;;;-143.90;100.00
76050;BME280;64967;50.234;19.224;2023-11-21T02:07:46;74990.28;;;-143.90;100.00
76050;BME280;64967;50.234;19.224;2023-11-21T02:10:18;75002.69;;;-143.90;100.00
76050;BME280;64967;50.234;19.224;2023-11-21T02:12:49;75002.69;;;-143.90;100.00
76050;BME280;64967;50.234;19.224;2023-11-21T02:15:19;75006.84;;;-143.90;100.00
76050;BME280;64967;50.234;19.224;2023-11-21T02:17:50;75004.75;;;-143.90;100.00
76050;BME280;64967;50.234;19.224;2023-11-21T02:20:20;75002.69;;;-143.90;100.00
76050;BME280;64967;50.234;19.224;2023-11-21T02:22:51;75006.84;;;-143.90;100.00
76050;BME280;64967;50.234;19.224;2023-11-21T02:25:28;75002.69;;;-143.90;100.00
76050;BME280;64967;50.234;19.224;2023-11-21T02:28:01;75006.84;;;-143.90;100.00
76050;BME280;64967;50.234;19.224;2023-11-21T02:30:27;75021.31;;;-143.90;100.00
76050;BME280;64967;50.234;19.224;2023-11-21T02:32:54;75019.22;;;-143.90;100.00
76050;BME280;64967;50.234;19.224;2023-11-21T02:35:23;75015.09;;;-143.90;100.00
76050;BME280;64967;50.234;19.224;2023-11-21T02:37:49;75015.09;;;-143.90;100.00
76050;BME280;64967;50.234;19.224;2023-11-21T02:40:23;75023.38;;;-143.90;100.00
76050;BME280;64967;50.234;19.224;2023-11-21T02:42:51;75033.72;;;-143.90;100.00
76050;BME280;64967;50.234;19.224;2023-11-21T02:45:19;75031.63;;;-143.90;100.00
76050;BME280;64967;50.234;19.224;2023-11-21T02:47:48;75031.63;;;-143.90;100.00
76050;BME280;64967;50.234;19.224;2023-11-21T02:50:16;75056.44;;;-143.90;100.00
76050;BME280;64967;50.234;19.224;2023-11-21T02:52:45;75058.50;;;-143.90;100.00
76050;BME280;64967;50.234;19.224;2023-11-21T02:55:12;75056.44;;;-143.90;100.00
76050;BME280;64967;50.234;19.224;2023-11-21T02:57:39;75056.44;;;-143.90;100.00
76050;BME280;64967;50.234;19.224;2023-11-21T03:00:06;75056.44;;;-143.90;100.00
76050;BME280;64967;50.234;19.224;2023-11-21T03:02:41;75050.25;;;-143.90;100.00
76050;BME280;64967;50.234;19.224;2023-11-21T03:05:09;75056.44;;;-143.90;100.00
76050;BME280;64967;50.234;19.224;2023-11-21T03:07:39;75052.31;;;-143.90;100.00
76050;BME280;64967;50.234;19.224;2023-11-21T03:10:08;75052.31;;;-143.90;100.00
76050;BME280;64967;50.234;19.224;2023-11-21T03:12:39;75048.19;;;-143.90;100.00
76050;BME280;64967;50.234;19.224;2023-11-21T03:15:06;75050.25;;;-143.90;100.00
76050;BME280;64967;50.234;19.224;2023-11-21T03:17:33;75058.50;;;-143.90;100.00
76050;BME280;64967;50.234;19.224;2023-11-21T03:20:04;75056.44;;;-143.90;100.00
76050;BME280;64967;50.234;19.224;2023-11-21T03:22:31;75056.44;;;-143.90;100.00
76050;BME280;64967;50.234;19.224;2023-11-21T03:24:58;75054.38;;;-143.90;100.00
76050;BME280;64967;50.234;19.224;2023-11-21T03:27:25;75060.59;;;-143.90;100.00
76050;BME280;64967;50.234;19.224;2023-11-21T03:29:51;75064.72;;;-143.90;100.00
76050;BME280;64967;50.234;19.224;2023-11-21T03:32:18;75064.72;;;-143.90;100.00
76050;BME280;64967;50.234;19.224;2023-11-21T03:34:56;75062.66;;;-143.90;100.00
76050;BME280;64967;50.234;19.224;2023-11-21T03:37:24;75060.59;;;-143.90;100.00
76050;BME280;64967;50.234;19.224;2023-11-21T03:39:51;75060.59;;;-143.90;100.00
76050;BME280;64967;50.234;19.224;2023-11-21T03:42:18;75066.78;;;-143.90;100.00
76050;BME280;64967;50.234;19.224;2023-11-21T03:44:44;75064.72;;;-143.90;100.00
76050;BME280;64967;50.234;19.224;2023-11-21T03:47:11;75062.66;;;-143.90;100.00
76050;BME280;64967;50.234;19.224;2023-11-21T03:49:38;75066.78;;;-143.90;100.00
76050;BME280;64967;50.234;19.224;2023-11-21T03:52:05;75079.19;;;-143.90;100.00
76050;BME280;64967;50.234;19.224;2023-11-21T03:54:33;75072.97;;;-143.90;100.00
76050;BME280;64967;50.234;19.224;2023-11-21T03:57:00;75077.13;;;-143.90;100.00
76050;BME280;64967;50.234;19.224;2023-11-21T03:59:27;75081.25;;;-143.90;100.00
76050;BME280;64967;50.234;19.224;2023-11-21T04:01:55;75077.13;;;-143.90;100.00
76050;BME280;64967;50.234;19.224;2023-11-21T04:04:23;75093.66;;;-143.90;100.00
76050;BME280;64967;50.234;19.224;2023-11-21T04:06:50;75093.66;;;-143.90;100.00
76050;BME280;64967;50.234;19.224;2023-11-21T04:09:18;75093.66;;;-143.90;100.00
76050;BME280;64967;50.234;19.224;2023-11-21T04:11:45;75091.59;;;-143.90;100.00
76050;BME280;64967;50.234;19.224;2023-11-21T04:14:13;75093.66;;;-143.90;100.00
76050;BME280;64967;50.234;19.224;2023-11-21T04:16:40;75093.66;;;-143.90;100.00
76050;BME280;64967;50.234;19.224;2023-11-21T04:19:07;75106.06;;;-143.90;100.00
76050;BME280;64967;50.234;19.224;2023-11-21T04:21:37;75091.59;;;-143.90;100.00
76050;BME280;64967;50.234;19.224;2023-11-21T04:24:04;75081.25;;;-143.90;100.00
76050;BME280;64967;50.234;19.224;2023-11-21T04:26:31;75114.34;;;-143.90;100.00
76050;BME280;64967;50.234;19.224;2023-11-21T04:28:57;75104.00;;;-143.90;100.00
76050;BME280;64967;50.234;19.224;2023-11-21T04:31:24;75108.13;;;-143.90;100.00
76050;BME280;64967;50.234;19.224;2023-11-21T04:33:51;75110.19;;;-143.90;100.00
76050;BME280;64967;50.234;19.224;2023-11-21T04:36:18;75118.47;;;-143.90;100.00
76050;BME280;64967;50.234;19.224;2023-11-21T04:38:46;75101.94;;;-143.90;100.00
76050;BME280;64967;50.234;19.224;2023-11-21T04:41:13;75114.34;;;-143.90;100.00
76050;BME280;64967;50.234;19.224;2023-11-21T04:43:39;75118.47;;;-143.90;100.00
76050;BME280;64967;50.234;19.224;2023-11-21T04:46:22;75106.06;;;-143.90;100.00
76050;BME280;64967;50.234;19.224;2023-11-21T04:48:48;75110.19;;;-143.90;100.00
76050;BME280;64967;50.234;19.224;2023-11-21T04:51:15;75114.34;;;-143.90;100.00
76050;BME280;64967;50.234;19.224;2023-11-21T04:53:42;75126.75;;;-143.90;100.00
76050;BME280;64967;50.234;19.224;2023-11-21T04:56:09;75126.75;;;-143.90;100.00
76050;BME280;64967;50.234;19.224;2023-11-21T04:58:35;75139.16;;;-143.90;100.00
76050;BME280;64967;50.234;19.224;2023-11-21T05:01:02;75126.75;;;-143.90;100.00
76050;BME280;64967;50.234;19.224;2023-11-21T05:03:34;75143.28;;;-143.90;100.00
76050;BME280;64967;50.234;19.224;2023-11-21T05:06:00;75132.94;;;-143.90;100.00
76050;BME280;64967;50.234;19.224;2023-11-21T05:08:27;75137.06;;;-143.90;100.00
76050;BME280;64967;50.234;19.224;2023-11-21T05:10:53;75139.16;;;-143.90;100.00
76050;BME280;64967;50.234;19.224;2023-11-21T05:13:20;75135.00;;;-143.90;100.00
76050;BME280;64967;50.234;19.224;2023-11-21T05:15:47;75139.16;;;-143.90;100.00
76050;BME280;64967;50.234;19.224;2023-11-21T05:18:13;75135.00;;;-143.90;100.00
76050;BME280;64967;50.234;19.224;2023-11-21T05:20:41;75139.16;;;-143.90;100.00
76050;BME280;64967;50.234;19.224;2023-11-21T05:23:07;75137.06;;;-143.90;100.00
76050;BME280;64967;50.234;19.224;2023-11-21T05:25:34;75130.88;;;-143.90;100.00
76050;BME280;64967;50.234;19.224;2023-11-21T05:28:03;75137.06;;;-143.90;100.00
76050;BME280;64967;50.234;19.224;2023-11-21T05:30:30;75126.75;;;-143.90;100.00
76050;BME280;64967;50.234;19.224;2023-11-21T05:32:57;75118.47;;;-143.90;100.00
76050;BME280;64967;50.234;19.224;2023-11-21T05:35:23;75126.75;;;-143.90;100.00
76050;BME280;64967;50.234;19.224;2023-11-21T05:37:50;75126.75;;;-143.90;100.00
76050;BME280;64967;50.234;19.224;2023-11-21T05:40:16;75135.00;;;-143.90;100.00
76050;BME280;64967;50.234;19.224;2023-11-21T05:42:43;75139.16;;;-143.90;100.00
76050;BME280;64967;50.234;19.224;2023-11-21T05:45:10;75139.16;;;-143.90;100.00
76050;BME280;64967;50.234;19.224;2023-11-21T05:47:43;75155.69;;;-143.90;100.00
76050;BME280;64967;50.234;19.224;2023-11-21T05:50:10;75163.94;;;-143.90;100.00
76050;BME280;64967;50.234;19.224;2023-11-21T05:52:39;75155.69;;;-143.90;100.00
76050;BME280;64967;50.234;19.224;2023-11-21T05:55:08;75163.94;;;-143.90;100.00
76050;BME280;64967;50.234;19.224;2023-11-21T05:57:36;75155.69;;;-143.90;100.00
76050;BME280;64967;50.234;19.224;2023-11-21T06:00:09;75155.69;;;-143.90;100.00
76050;BME280;64967;50.234;19.224;2023-11-21T06:02:57;75147.41;;;-143.90;100.00
76050;BME280;64967;50.234;19.224;2023-11-21T06:05:25;75147.41;;;-143.90;100.00
76050;BME280;64967;50.234;19.224;2023-11-21T06:07:54;75147.41;;;-143.90;100.00
76050;BME280;64967;50.234;19.224;2023-11-21T06:10:21;75155.69;;;-143.90;100.00
76050;BME280;64967;50.234;19.224;2023-11-21T06:12:51;75151.53;;;-143.90;100.00
76050;BME280;64967;50.234;19.224;2023-11-21T06:15:18;75163.94;;;-143.90;100.00
76050;BME280;64967;50.234;19.224;2023-11-21T06:17:49;75166.03;;;-143.90;100.00
76050;BME280;64967;50.234;19.224;2023-11-21T06:20:21;75168.09;;;-143.90;100.00
76050;BME280;64967;50.234;19.224;2023-11-21T06:22:49;75168.09;;;-143.90;100.00
76050;BME280;64967;50.234;19.224;2023-11-21T06:25:17;75172.22;;;-143.90;100.00
76050;BME280;64967;50.234;19.224;2023-11-21T06:27:45;75172.22;;;-143.90;100.00
76050;BME280;64967;50.234;19.224;2023-11-21T06:30:13;75176.34;;;-143.90;100.00
76050;BME280;64967;50.234;19.224;2023-11-21T06:32:41;75197.03;;;-143.90;100.00
76050;BME280;64967;50.234;19.224;2023-11-21T06:35:08;75184.63;;;-143.90;100.00
76050;BME280;64967;50.234;19.224;2023-11-21T06:37:36;75192.91;;;-143.90;100.00
76050;BME280;64967;50.234;19.224;2023-11-21T06:40:04;75184.63;;;-143.90;100.00
76050;BME280;64967;50.234;19.224;2023-11-21T06:42:31;75192.91;;;-143.90;100.00
76050;BME280;64967;50.234;19.224;2023-11-21T06:44:57;75188.75;;;-143.90;100.00
76050;BME280;64967;50.234;19.224;2023-11-21T06:47:25;75182.56;;;-143.90;100.00
76050;BME280;64967;50.234;19.224;2023-11-21T06:49:52;75174.28;;;-143.90;100.00
76050;BME280;64967;50.234;19.224;2023-11-21T06:52:19;75180.50;;;-143.90;100.00
76050;BME280;64967;50.234;19.224;2023-11-21T06:54:47;75184.63;;;-143.90;100.00
76050;BME280;64967;50.234;19.224;2023-11-21T06:57:16;75186.69;;;-143.90;100.00
76050;BME280;64967;50.234;19.224;2023-11-21T06:59:42;75192.91;;;-143.90;100.00
76050;BME280;64967;50.234;19.224;2023-11-21T07:02:09;75197.03;;;-143.90;100.00
76050;BME280;64967;50.234;19.224;2023-11-21T07:04:36;75190.81;;;-143.90;100.00
76050;BME280;64967;50.234;19.224;2023-11-21T07:07:03;75203.22;;;-143.90;100.00
76050;BME280;64967;50.234;19.224;2023-11-21T07:09:30;75201.16;;;-143.90;100.00
76050;BME280;64967;50.234;19.224;2023-11-21T07:11:57;75211.50;;;-143.90;100.00
76050;BME280;64967;50.234;19.224;2023-11-21T07:14:24;75201.16;;;-143.90;100.00
76050;BME280;64967;50.234;19.224;2023-11-21T07:16:50;75211.50;;;-143.90;100.00
76050;BME280;64967;50.234;19.224;2023-11-21T07:19:19;75199.09;;;-143.90;100.00
76050;BME280;64967;50.234;19.224;2023-11-21T07:21:46;75199.09;;;-143.90;100.00
76050;BME280;64967;50.234;19.224;2023-11-21T07:24:13;75197.03;;;-143.90;100.00
76050;BME280;64967;50.234;19.224;2023-11-21T07:26:40;75192.91;;;-143.90;100.00
76050;BME280;64967;50.234;19.224;2023-11-21T07:29:07;75199.09;;;-143.90;100.00
76050;BME280;64967;50.234;19.224;2023-11-21T07:31:33;75203.22;;;-143.90;100.00
76050;BME280;64967;50.234;19.224;2023-11-21T07:34:01;75209.44;;;-143.90;100.00
76050;BME280;64967;50.234;19.224;2023-11-21T07:36:27;75201.16;;;-143.90;100.00
76050;BME280;64967;50.234;19.224;2023-11-21T07:38:54;75197.03;;;-143.90;100.00
76050;BME280;64967;50.234;19.224;2023-11-21T07:41:20;75194.97;;;-143.90;100.00
76050;BME280;64967;50.234;19.224;2023-11-21T07:43:57;75192.91;;;-143.90;100.00
76050;BME280;64967;50.234;19.224;2023-11-21T07:46:24;75199.09;;;-143.90;100.00
76050;BME280;64967;50.234;19.224;2023-11-21T07:48:53;75201.16;;;-143.90;100.00
76050;BME280;64967;50.234;19.224;2023-11-21T07:51:19;75199.09;;;-143.90;100.00
76050;BME280;64967;50.234;19.224;2023-11-21T07:53:46;75209.44;;;-143.90;100.00
76050;BME280;64967;50.234;19.224;2023-11-21T07:56:13;75201.16;;;-143.90;100.00
76050;BME280;64967;50.234;19.224;2023-11-21T07:58:39;75188.75;;;-143.90;100.00
76050;BME280;64967;50.234;19.224;2023-11-21T08:01:06;75176.34;;;-143.90;100.00
76050;BME280;64967;50.234;19.224;2023-11-21T08:03:34;75176.34;;;-143.90;100.00
76050;BME280;64967;50.234;19.224;2023-11-21T08:06:01;75180.50;;;-143.90;100.00
76050;BME280;64967;50.234;19.224;2023-11-21T08:08:29;75170.16;;;-143.90;100.00
76050;BME280;64967;50.234;19.224;2023-11-21T08:10:56;75170.16;;;-143.90;100.00
76050;BME280;64967;50.234;19.224;2023-11-21T08:13:27;75176.34;;;-143.90;100.00
76050;BME280;64967;50.234;19.224;2023-11-21T08:15:55;75178.41;;;-143.90;100.00
76050;BME280;64967;50.234;19.224;2023-11-21T08:18:23;75166.03;;;-143.90;100.00
76050;BME280;64967;50.234;19.224;2023-11-21T08:21:00;75151.53;;;-143.90;100.00
76050;BME280;64967;50.234;19.224;2023-11-21T08:23:30;75141.22;;;-143.90;100.00
76050;BME280;64967;50.234;19.224;2023-11-21T08:25:57;75151.53;;;-143.90;100.00
76050;BME280;64967;50.234;19.224;2023-11-21T08:28:24;75139.16;;;-143.90;100.00
76050;BME280;64967;50.234;19.224;2023-11-21T08:30:52;75141.22;;;-143.90;100.00
76050;BME280;64967;50.234;19.224;2023-11-21T08:33:21;75149.47;;;-143.90;100.00
76050;BME280;64967;50.234;19.224;2023-11-21T08:35:48;75132.94;;;-143.90;100.00
76050;BME280;64967;50.234;19.224;2023-11-21T08:38:15;75130.88;;;-143.90;100.00
76050;BME280;64967;50.234;19.224;2023-11-21T08:40:41;75147.41;;;-143.90;100.00
76050;BME280;64967;50.234;19.224;2023-11-21T08:43:08;75137.06;;;-143.90;100.00
76050;BME280;64967;50.234;19.224;2023-11-21T08:45:35;75141.22;;;-143.90;100.00
76050;BME280;64967;50.234;19.224;2023-11-21T08:48:02;75143.28;;;-143.90;100.00
76050;BME280;64967;50.234;19.224;2023-11-21T08:50:29;75149.47;;;-143.90;100.00
76050;BME280;64967;50.234;19.224;2023-11-21T08:52:55;75147.41;;;-143.90;100.00
76050;BME280;64967;50.234;19.224;2023-11-21T08:55:22;75161.88;;;-143.90;100.00
76050;BME280;64967;50.234;19.224;2023-11-21T08:57:49;75155.69;;;-143.90;100.00
76050;BME280;64967;50.234;19.224;2023-11-21T09:00:16;75157.75;;;-143.90;100.00
76050;BME280;64967;50.234;19.224;2023-11-21T09:02:46;75157.75;;;-143.90;100.00
76050;BME280;64967;50.234;19.224;2023-11-21T09:05:14;75178.41;;;-143.90;100.00
76050;BME280;64967;50.234;19.224;2023-11-21T09:07:42;75186.69;;;-143.90;100.00
76050;BME280;64967;50.234;19.224;2023-11-21T09:10:09;75184.63;;;-143.90;100.00
76050;BME280;64967;50.234;19.224;2023-11-21T09:12:36;75166.03;;;-143.90;100.00
76050;BME280;64967;50.234;19.224;2023-11-21T09:15:05;75163.94;;;-143.90;100.00
76050;BME280;64967;50.234;19.224;2023-11-21T09:17:33;75153.63;;;-143.90;100.00
76050;BME280;64967;50.234;19.224;2023-11-21T09:20:01;75159.81;;;-143.90;100.00
76050;BME280;64967;50.234;19.224;2023-11-21T09:22:30;75168.09;;;-143.90;100.00
76050;BME280;64967;50.234;19.224;2023-11-21T09:24:58;75176.34;;;-143.90;100.00
76050;BME280;64967;50.234;19.224;2023-11-21T09:27:25;75184.63;;;-143.90;100.00
76050;BME280;64967;50.234;19.224;2023-11-21T09:29:52;75180.50;;;-143.90;100.00
76050;BME280;64967;50.234;19.224;2023-11-21T09:32:24;75180.50;;;-143.90;100.00
76050;BME280;64967;50.234;19.224;2023-11-21T09:34:50;75172.22;;;-143.90;100.00
76050;BME280;64967;50.234;19.224;2023-11-21T09:37:17;75188.75;;;-143.90;100.00
76050;BME280;64967;50.234;19.224;2023-11-21T09:39:45;75168.09;;;-143.90;100.00
76050;BME280;64967;50.234;19.224;2023-11-21T09:42:23;75170.16;;;-143.90;100.00
76050;BME280;64967;50.234;19.224;2023-11-21T09:45:26;75151.53;;;-143.90;100.00
76050;BME280;64967;50.234;19.224;2023-11-21T09:47:57;75116.41;;;-143.90;100.00
76050;BME280;64967;50.234;19.224;2023-11-21T09:50:25;75118.47;;;-143.90;100.00
76050;BME280;64967;50.234;19.224;2023-11-21T09:55:27;75104.00;;;-143.90;100.00
76050;BME280;64967;50.234;19.224;2023-11-21T09:58:05;75093.66;;;-143.90;100.00
76050;BME280;64967;50.234;19.224;2023-11-21T10:00:43;75087.47;;;-143.90;100.00
76050;BME280;64967;50.234;19.224;2023-11-21T10:03:11;75075.06;;;-143.90;100.00
76050;BME280;64967;50.234;19.224;2023-11-21T10:05:40;75072.97;;;-143.90;100.00
76050;BME280;64967;50.234;19.224;2023-11-21T10:08:11;75106.06;;;-143.90;100.00
76050;BME280;64967;50.234;19.224;2023-11-21T10:10:43;75101.94;;;-143.90;100.00
76050;BME280;64967;50.234;19.224;2023-11-21T10:13:12;75097.78;;;-143.90;100.00
76050;BME280;64967;50.234;19.224;2023-11-21T10:15:42;75089.53;;;-143.90;100.00
76050;BME280;64967;50.234;19.224;2023-11-21T10:18:15;75087.47;;;-143.90;100.00
76050;BME280;64967;50.234;19.224;2023-11-21T10:20:43;75079.19;;;-143.90;100.00
76050;BME280;64967;50.234;19.224;2023-11-21T10:23:11;75083.31;;;-143.90;100.00
76050;BME280;64967;50.234;19.224;2023-11-21T10:25:38;75089.53;;;-143.90;100.00
76050;BME280;64967;50.234;19.224;2023-11-21T10:28:05;75072.97;;;-143.90;100.00
76050;BME280;64967;50.234;19.224;2023-11-21T10:30:36;75060.59;;;-143.90;100.00
76050;BME280;64967;50.234;19.224;2023-11-21T10:33:05;75046.09;;;-143.90;100.00
76050;BME280;64967;50.234;19.224;2023-11-21T10:35:58;75046.09;;;-143.90;100.00
76050;BME280;64967;50.234;19.224;2023-11-21T10:38:27;75033.72;;;-143.90;100.00
76050;BME280;64967;50.234;19.224;2023-11-21T10:40:55;75046.09;;;-143.90;100.00
76050;BME280;64967;50.234;19.224;2023-11-21T10:43:24;75050.25;;;-143.90;100.00
76050;BME280;64967;50.234;19.224;2023-11-21T10:45:51;75048.19;;;-143.90;100.00
76050;BME280;64967;50.234;19.224;2023-11-21T10:48:18;75060.59;;;-143.90;100.00
76050;BME280;64967;50.234;19.224;2023-11-21T10:50:46;75068.84;;;-143.90;100.00
76050;BME280;64967;50.234;19.224;2023-11-21T10:53:13;75085.38;;;-143.90;100.00
76050;BME280;64967;50.234;19.224;2023-11-21T10:55:40;75099.88;;;-143.90;100.00
76050;BME280;64967;50.234;19.224;2023-11-21T10:58:07;75095.72;;;-143.90;100.00
76050;BME280;64967;50.234;19.224;2023-11-21T11:00:37;75110.19;;;-143.90;100.00
76050;BME280;64967;50.234;19.224;2023-11-21T11:03:06;75110.19;;;-143.90;100.00
76050;BME280;64967;50.234;19.224;2023-11-21T11:05:40;75122.59;;;-143.90;100.00
76050;BME280;64967;50.234;19.224;2023-11-21T11:08:13;75120.53;;;-143.90;100.00
76050;BME280;64967;50.234;19.224;2023-11-21T11:10:58;75143.28;;;-143.90;100.00
76050;BME280;64967;50.234;19.224;2023-11-21T11:13:25;75159.81;;;-143.90;100.00
76050;BME280;64967;50.234;19.224;2023-11-21T11:15:58;75143.28;;;-143.90;100.00
76050;BME280;64967;50.234;19.224;2023-11-21T11:22:08;75157.75;;;-143.90;100.00
76050;BME280;64967;50.234;19.224;2023-11-21T11:29:59;75194.97;;;-143.90;100.00
76050;BME280;64967;50.234;19.224;2023-11-21T11:33:03;75192.91;;;-143.90;100.00
76050;BME280;64967;50.234;19.224;2023-11-21T11:38:31;75180.50;;;-143.90;100.00
76050;BME280;64967;50.234;19.224;2023-11-21T11:41:02;75188.75;;;-143.90;100.00
76050;BME280;64967;50.234;19.224;2023-11-21T11:43:31;75188.75;;;-143.90;100.00
76050;BME280;64967;50.234;19.224;2023-11-21T11:46:11;75194.97;;;-143.90;100.00
76050;BME280;64967;50.234;19.224;2023-11-21T11:48:41;75174.28;;;-143.90;100.00
76050;BME280;64967;50.234;19.224;2023-11-21T11:51:13;75180.50;;;-143.90;100.00
76050;BME280;64967;50.234;19.224;2023-11-21T11:53:48;75170.16;;;-143.90;100.00
76050;BME280;64967;50.234;19.224;2023-11-21T11:56:28;75172.22;;;-143.90;100.00
76050;BME280;64967;50.234;19.224;2023-11-21T11:58:58;75190.81;;;-143.90;100.00
76050;BME280;64967;50.234;19.224;2023-11-21T12:01:26;75184.63;;;-143.90;100.00
76050;BME280;64967;50.234;19.224;2023-11-21T12:06:43;75182.56;;;-143.90;100.00
76050;BME280;64967;50.234;19.224;2023-11-21T12:09:23;75168.09;;;-143.90;100.00
76050;BME280;64967;50.234;19.224;2023-11-21T12:11:51;75170.16;;;-143.90;100.00
76050;BME280;64967;50.234;19.224;2023-11-21T12:14:18;75153.63;;;-143.90;100.00
76050;BME280;64967;50.234;19.224;2023-11-21T12:16:45;75151.53;;;-143.90;100.00
76050;BME280;64967;50.234;19.224;2023-11-21T12:19:12;75139.16;;;-143.90;100.00
76050;BME280;64967;50.234;19.224;2023-11-21T12:21:42;75122.59;;;-143.90;100.00
76050;BME280;64967;50.234;19.224;2023-11-21T12:24:31;75124.66;;;-143.90;100.00
76050;BME280;64967;50.234;19.224;2023-11-21T12:26:57;75122.59;;;-143.90;100.00
76050;BME280;64967;50.234;19.224;2023-11-21T12:29:24;75110.19;;;-143.90;100.00
76050;BME280;64967;50.234;19.224;2023-11-21T12:31:50;75106.06;;;-143.90;100.00
76050;BME280;64967;50.234;19.224;2023-11-21T12:34:17;75101.94;;;-143.90;100.00
76050;BME280;64967;50.234;19.224;2023-11-21T12:36:44;75120.53;;;-143.90;100.00
76050;BME280;64967;50.234;19.224;2023-11-21T12:39:14;75106.06;;;-143.90;100.00
76050;BME280;64967;50.234;19.224;2023-11-21T12:41:41;75093.66;;;-143.90;100.00
76050;BME280;64967;50.234;19.224;2023-11-21T12:44:12;75110.19;;;-143.90;100.00
76050;BME280;64967;50.234;19.224;2023-11-21T12:46:42;75139.16;;;-143.90;100.00